Etusivu
METAR-TAF:

METAR-TAF

Lentoasemat :

Roben-Hood Airport

Big Rapids, Michigan, Yhdysvallat

Leveyspiiri: 43-43-21N, Pituuspiiri: 085-30-15W, korkeus merenpinnasta: 302 m

Tämänhetkinen sää

Tämä raportti tehtiin 9 minuuttia sitten, kello 20.15 UTC
Tuuli 9 kn pohjoisesta/koillisesta puuskistuen 14 kn:hen
Lämpötila -1°C
Kosteus 43%
Ilmanpaine 1013 hPa
Näkyvyys: 16.1 km
Hajanaisia pilviä 4500 ft:n korkeudessa
Hajonneita pilviä 10000 ft:n korkeudessa
Hajonneita pilviä 11000 ft:n korkeudessa

METAR: KRQB 262015Z AUTO 02009G14KT 10SM SCT045 BKN100 BKN110 M01/M12 A2992 RMK AO2 T10131121

Aika: 15:24 (20:24 UTC)


TAF: puuttuu

Säähavainnot ja -ennusteet yli 4000 lentoasemalta (METAR- ja TAF-raportit).

Käytössä olevat sääasemat on merkitty karttaan keltaisilla ja punaisilla pisteillä.

Aseta hiiri pisteen päälle nähdäksesi sääaseman nimen.

Klikkaa sitten nähdäksesi säähavainnot ja -ennusteet.

Kartan vaihtaminen: klikkaa mustalla rastilla varustettuja vihreitä pisteitä, niin voit zoomata sisään; viivalla varustettua vihreää pistettä, niin voit zoomata ulos tai vihreitä nuolia, niin pääset viereisille kartoille.


METAR-TAF: